Time;durP1;ratioP1;P1;durP2;ratioP2;P2;SDS_P1;SDS_P2;PMS_P1;PMS_P2;Temp;Humidity;BMP_temperature;BMP_pressure;BME280_temperature;BME280_humidity;BME280_pressure;Samples;Min_cycle;Max_cycle;Signal;HPM_P1;HPM_P2
2021/11/14 00:00:51;;;;;;;10.35;4.82;;;;;;;9.77;100.00;100953.34;5092336;28;20480;-75
2021/11/14 00:03:17;;;;;;;9.90;5.00;;;;;;;9.77;100.00;100956.13;5092074;28;20395;-75
2021/11/14 00:05:42;;;;;;;9.55;4.63;;;;;;;9.75;100.00;100947.25;5094601;28;20112;-77
2021/11/14 00:08:09;;;;;;;9.15;5.10;;;;;;;9.76;100.00;100954.47;5091689;28;20039;-76
2021/11/14 00:10:35;;;;;;;6.85;4.70;;;;;;;9.74;100.00;100953.91;5094943;28;20033;-75
2021/11/14 00:13:02;;;;;;;8.27;4.60;;;;;;;9.73;100.00;100955.88;5092360;28;20032;-75
2021/11/14 00:15:27;;;;;;;8.57;4.65;;;;;;;9.73;100.00;100955.03;5086396;28;20100;-75
2021/11/14 00:17:53;;;;;;;7.93;4.50;;;;;;;9.74;100.00;100965.00;5092674;28;20357;-76
2021/11/14 00:20:19;;;;;;;8.90;5.28;;;;;;;9.72;100.00;100958.91;5093775;28;20040;-76
2021/11/14 00:22:44;;;;;;;7.00;4.65;;;;;;;9.72;100.00;100964.44;5090504;28;20119;-76
2021/11/14 00:25:11;;;;;;;8.77;4.80;;;;;;;9.72;100.00;100970.00;5086941;28;20488;-75
2021/11/14 00:27:36;;;;;;;9.25;4.63;;;;;;;9.71;100.00;100968.34;5069070;28;20028;-74
2021/11/14 00:30:02;;;;;;;10.43;4.88;;;;;;;9.70;100.00;100978.59;5089017;28;20043;-74
2021/11/14 00:32:29;;;;;;;17.05;5.10;;;;;;;9.69;100.00;100965.00;5081745;28;20044;-74
2021/11/14 00:34:54;;;;;;;7.82;4.75;;;;;;;9.69;100.00;100963.06;5084752;28;20048;-74
2021/11/14 00:37:20;;;;;;;8.77;4.57;;;;;;;9.66;100.00;100963.63;5084507;28;20077;-74
2021/11/14 00:39:45;;;;;;;10.65;5.10;;;;;;;9.67;100.00;100951.44;5092342;28;20028;-74
2021/11/14 00:42:11;;;;;;;9.23;4.70;;;;;;;9.66;100.00;100963.63;5091881;28;20508;-74
2021/11/14 00:44:37;;;;;;;14.65;5.47;;;;;;;9.65;100.00;100958.34;5080507;28;20033;-74
2021/11/14 00:47:03;;;;;;;9.13;4.47;;;;;;;9.62;100.00;100966.13;5087209;28;20111;-74
2021/11/14 00:49:28;;;;;;;9.48;5.00;;;;;;;9.63;100.00;100964.16;5090058;28;20036;-74
2021/11/14 00:51:54;;;;;;;11.13;6.03;;;;;;;9.62;100.00;100965.28;5089957;28;20035;-74
2021/11/14 00:54:20;;;;;;;10.50;5.57;;;;;;;9.62;100.00;100966.13;5082708;28;20032;-74
2021/11/14 00:56:46;;;;;;;7.60;5.32;;;;;;;9.61;100.00;100971.94;5088417;28;20035;-74
2021/11/14 00:59:11;;;;;;;10.60;6.50;;;;;;;9.58;100.00;100965.03;5089645;28;20024;-74
2021/11/14 01:01:37;;;;;;;11.13;6.20;;;;;;;9.61;100.00;100963.59;5088469;28;20028;-74
2021/11/14 01:04:02;;;;;;;13.55;6.53;;;;;;;9.59;100.00;100952.81;5087413;28;20048;-74
2021/11/14 01:06:28;;;;;;;10.95;6.18;;;;;;;9.59;100.00;100971.41;5090740;28;20495;-74
2021/11/14 01:08:53;;;;;;;7.97;5.95;;;;;;;9.57;100.00;100963.34;5079046;28;20479;-74
2021/11/14 01:11:19;;;;;;;16.33;6.10;;;;;;;9.58;100.00;100970.56;5087394;28;20035;-74
2021/11/14 01:13:45;;;;;;;11.15;5.80;;;;;;;9.58;100.00;100970.56;5077971;28;20029;-74
2021/11/14 01:16:11;;;;;;;9.80;5.50;;;;;;;9.56;100.00;100969.19;5096160;28;20048;-74
2021/11/14 01:18:37;;;;;;;12.73;5.40;;;;;;;9.58;100.00;100964.16;5094036;28;20036;-74
2021/11/14 01:21:05;;;;;;;7.43;4.68;;;;;;;9.59;100.00;100963.91;5095089;28;20399;-74
2021/11/14 01:23:30;;;;;;;11.32;5.95;;;;;;;9.57;100.00;100962.50;5087572;28;20029;-74
2021/11/14 01:25:57;;;;;;;11.75;5.78;;;;;;;9.56;100.00;100972.78;5089386;28;20912;-75
2021/11/14 01:28:23;;;;;;;8.43;5.78;;;;;;;9.54;100.00;100974.16;5090521;28;20073;-75
2021/11/14 01:30:50;;;;;;;11.18;5.50;;;;;;;9.53;100.00;100983.59;5093457;28;20039;-74
2021/11/14 01:33:16;;;;;;;9.70;5.50;;;;;;;9.53;100.00;100976.09;5092796;28;20032;-74
2021/11/14 01:35:42;;;;;;;8.38;4.88;;;;;;;9.53;100.00;100966.97;5087288;28;20031;-74
2021/11/14 01:38:08;;;;;;;9.70;4.97;;;;;;;9.52;100.00;100971.66;5088121;28;20485;-74
2021/11/14 01:40:42;;;;;;;9.15;4.97;;;;;;;9.52;100.00;100973.59;5095597;28;20085;-75
2021/11/14 01:43:08;;;;;;;13.18;5.40;;;;;;;9.51;100.00;100970.00;5088068;28;20464;-74
2021/11/14 01:45:34;;;;;;;8.27;5.03;;;;;;;9.52;100.00;100963.31;5059846;28;20033;-74
2021/11/14 01:48:00;;;;;;;9.98;5.30;;;;;;;9.53;100.00;100966.97;5091361;28;20020;-74
2021/11/14 01:50:25;;;;;;;10.35;5.45;;;;;;;9.48;100.00;100970.53;5097060;28;20043;-74
2021/11/14 01:52:51;;;;;;;10.77;4.97;;;;;;;9.48;100.00;100970.53;5092423;28;20444;-74
2021/11/14 01:55:19;;;;;;;9.68;5.50;;;;;;;9.47;100.00;100962.50;5085778;28;20036;-74
2021/11/14 01:57:45;;;;;;;6.85;4.90;;;;;;;9.48;100.00;100967.78;5098428;28;20496;-74
2021/11/14 02:00:12;;;;;;;9.70;4.88;;;;;;;9.48;100.00;100967.78;5093605;28;20101;-74
2021/11/14 02:02:38;;;;;;;9.55;4.90;;;;;;;9.47;100.00;100979.13;5094534;28;20498;-75
2021/11/14 02:05:05;;;;;;;7.60;4.18;;;;;;;9.49;100.00;100977.75;5096889;28;20066;-75
2021/11/14 02:07:32;;;;;;;10.43;4.88;;;;;;;9.50;100.00;100979.44;5057078;28;20032;-75
2021/11/14 02:09:57;;;;;;;9.20;4.53;;;;;;;9.46;100.00;100974.69;5078470;28;20043;-75
2021/11/14 02:12:23;;;;;;;7.20;4.70;;;;;;;9.45;100.00;100965.56;5097942;28;20028;-75
2021/11/14 02:14:48;;;;;;;6.35;4.60;;;;;;;9.49;100.00;100972.19;5093274;28;20032;-75
2021/11/14 02:17:14;;;;;;;7.53;4.75;;;;;;;9.49;100.00;100965.81;5097794;28;20055;-75
2021/11/14 02:19:39;;;;;;;9.15;5.00;;;;;;;9.45;100.00;100968.34;5094943;28;20024;-75
2021/11/14 02:22:05;;;;;;;7.20;4.68;;;;;;;9.47;100.00;100973.59;5095120;28;20483;-75
2021/11/14 02:24:31;;;;;;;8.77;4.53;;;;;;;9.49;100.00;100982.47;5084406;28;20024;-75
2021/11/14 02:26:56;;;;;;;9.85;5.35;;;;;;;9.43;100.00;100983.56;5095972;28;20157;-75
2021/11/14 02:29:22;;;;;;;11.43;5.00;;;;;;;9.41;100.00;100981.06;5094110;28;20020;-75
2021/11/14 02:31:47;;;;;;;8.07;4.97;;;;;;;9.45;100.00;100979.41;5095444;28;20032;-75
2021/11/14 02:34:13;;;;;;;7.18;4.68;;;;;;;9.44;100.00;100976.91;5078634;28;20032;-76
2021/11/14 02:36:38;;;;;;;12.15;5.47;;;;;;;9.44;100.00;100974.97;5094236;28;20036;-75
2021/11/14 02:39:05;;;;;;;10.48;4.90;;;;;;;9.41;100.00;100975.50;5096016;28;20040;-75
2021/11/14 02:41:30;;;;;;;9.55;5.00;;;;;;;9.42;100.00;100974.44;5094834;28;20447;-75
2021/11/14 02:43:57;;;;;;;7.60;4.57;;;;;;;9.43;100.00;100978.03;5077322;28;20032;-75
2021/11/14 02:46:23;;;;;;;9.52;5.43;;;;;;;9.44;100.00;100968.59;5094263;28;20036;-75
2021/11/14 02:48:48;;;;;;;7.70;4.75;;;;;;;9.44;100.00;100965.81;5079533;28;20067;-75
2021/11/14 02:51:17;;;;;;;9.18;4.50;;;;;;;9.41;100.00;100969.97;5093236;28;20028;-75
2021/11/14 02:53:42;;;;;;;9.00;4.72;;;;;;;9.43;100.00;100962.22;5084672;28;20035;-75
2021/11/14 02:56:09;;;;;;;9.32;4.55;;;;;;;9.43;100.00;100962.22;5042523;28;20032;-75
2021/11/14 02:58:36;;;;;;;8.80;4.68;;;;;;;9.42;100.00;100955.03;5085361;28;20551;-75
2021/11/14 03:01:07;;;;;;;11.75;4.60;;;;;;;9.41;100.00;100956.09;5082911;28;20492;-75
2021/11/14 03:03:33;;;;;;;6.95;4.57;;;;;;;9.41;100.00;100958.88;5058738;28;20040;-75
2021/11/14 03:05:59;;;;;;;7.25;4.40;;;;;;;9.37;100.00;100958.59;5074745;28;20035;-74
2021/11/14 03:08:24;;;;;;;7.22;4.25;;;;;;;9.43;100.00;100955.84;5074335;28;20056;-75
2021/11/14 03:10:49;;;;;;;9.80;4.85;;;;;;;9.36;100.00;100962.50;5067216;28;20032;-74
2021/11/14 03:13:16;;;;;;;7.20;4.60;;;;;;;9.37;100.00;100955.84;5089954;28;20027;-75
2021/11/14 03:15:44;;;;;;;10.60;4.50;;;;;;;9.39;100.00;100961.13;5082175;28;20072;-75
2021/11/14 03:18:10;;;;;;;9.35;4.38;;;;;;;9.37;100.00;100955.00;5088476;28;20043;-75
2021/11/14 03:20:36;;;;;;;9.93;4.43;;;;;;;9.38;100.00;100960.25;5091518;28;20146;-75
2021/11/14 03:23:02;;;;;;;8.25;4.18;;;;;;;9.40;100.00;100966.38;5079566;28;20442;-74
2021/11/14 03:25:28;;;;;;;8.65;4.78;;;;;;;9.39;100.00;100963.88;5087616;28;20040;-74
2021/11/14 03:27:56;;;;;;;8.27;4.70;;;;;;;9.38;100.00;100970.53;5092275;28;20036;-74
2021/11/14 03:30:21;;;;;;;9.43;5.35;;;;;;;9.37;100.00;100974.41;5095233;28;20032;-74
2021/11/14 03:32:47;;;;;;;9.70;5.45;;;;;;;9.36;100.00;100961.63;5092102;28;20032;-74
2021/11/14 03:35:13;;;;;;;6.55;4.53;;;;;;;9.38;100.00;100973.28;5080117;28;20027;-74
2021/11/14 03:37:38;;;;;;;7.30;5.00;;;;;;;9.37;100.00;100966.09;5094916;28;20116;-74
2021/11/14 03:40:06;;;;;;;11.05;5.45;;;;;;;9.37;100.00;100971.66;5092502;28;20040;-74
2021/11/14 03:42:31;;;;;;;9.40;4.82;;;;;;;9.34;100.00;100972.19;5096263;28;20063;-74
2021/11/14 03:44:57;;;;;;;11.20;5.45;;;;;;;9.33;100.00;100967.75;5092888;28;20085;-75
2021/11/14 03:47:22;;;;;;;8.98;4.57;;;;;;;9.32;100.00;100968.84;5094710;28;20028;-75
2021/11/14 03:49:47;;;;;;;9.45;5.32;;;;;;;9.32;100.00;100966.09;5094217;28;20028;-75
2021/11/14 03:52:13;;;;;;;9.13;4.93;;;;;;;9.29;100.00;100961.09;5093857;28;20043;-74
2021/11/14 03:54:39;;;;;;;9.38;4.40;;;;;;;9.29;100.00;100961.91;5091783;28;20035;-75
2021/11/14 03:57:05;;;;;;;8.27;4.80;;;;;;;9.29;100.00;100956.38;5094860;28;20059;-74
2021/11/14 03:59:30;;;;;;;7.45;4.80;;;;;;;9.28;100.00;100953.91;5092472;28;20040;-75
2021/11/14 04:01:56;;;;;;;7.07;4.55;;;;;;;9.28;100.00;100953.91;5076292;28;20530;-74
2021/11/14 04:04:21;;;;;;;8.88;4.20;;;;;;;9.29;100.00;100963.88;5094846;28;20032;-74
2021/11/14 04:06:47;;;;;;;8.55;4.50;;;;;;;9.27;100.00;100957.75;5083843;28;20044;-74
2021/11/14 04:09:12;;;;;;;11.15;4.72;;;;;;;9.29;100.00;100961.09;5092604;28;20073;-74
2021/11/14 04:11:38;;;;;;;8.93;4.00;;;;;;;9.30;100.00;100957.19;5096189;28;20435;-74
2021/11/14 04:14:03;;;;;;;7.93;4.28;;;;;;;9.30;100.00;100962.75;5090661;28;20036;-74
2021/11/14 04:16:29;;;;;;;6.18;4.15;;;;;;;9.30;100.00;100965.53;5094770;28;20154;-75
2021/11/14 04:18:54;;;;;;;6.65;4.13;;;;;;;9.27;100.00;100966.06;5090973;28;20027;-74
2021/11/14 04:21:20;;;;;;;6.03;3.97;;;;;;;9.26;100.00;100959.69;5092310;28;20032;-74
2021/11/14 04:23:45;;;;;;;6.82;3.53;;;;;;;9.26;100.00;100961.66;5095653;28;20032;-74
2021/11/14 04:26:10;;;;;;;7.75;4.20;;;;;;;9.25;100.00;100962.72;5092356;28;20032;-75
2021/11/14 04:28:36;;;;;;;5.97;3.85;;;;;;;9.26;100.00;100969.97;5036203;28;20040;-74
2021/11/14 04:31:02;;;;;;;14.38;4.03;;;;;;;9.27;100.00;100963.31;5077204;28;20040;-74
2021/11/14 04:33:28;;;;;;;5.57;3.60;;;;;;;9.23;100.00;100964.97;5092059;28;20023;-74
2021/11/14 04:35:53;;;;;;;6.75;3.17;;;;;;;9.25;100.00;100969.13;5091641;28;20127;-74
2021/11/14 04:38:19;;;;;;;8.38;3.55;;;;;;;9.21;100.00;100970.78;5092878;28;20032;-74
2021/11/14 04:40:44;;;;;;;6.75;3.38;;;;;;;9.17;100.00;100970.50;5074915;28;20093;-74
2021/11/14 04:43:11;;;;;;;9.13;3.20;;;;;;;9.17;100.00;100970.50;5075966;28;20107;-74
2021/11/14 04:45:36;;;;;;;7.10;3.38;;;;;;;9.16;100.00;100968.84;5094170;28;20028;-74
2021/11/14 04:48:03;;;;;;;7.13;3.53;;;;;;;9.15;100.00;100982.97;5093259;28;20560;-74
2021/11/14 04:50:29;;;;;;;9.85;3.60;;;;;;;9.11;100.00;100970.75;5093527;28;20028;-74
2021/11/14 04:52:54;;;;;;;6.65;3.30;;;;;;;9.06;100.00;100967.97;5077102;28;20086;-74
2021/11/14 04:55:20;;;;;;;8.55;3.40;;;;;;;9.05;100.00;100972.66;5092966;28;20036;-74
2021/11/14 04:57:51;;;;;;;5.70;2.95;;;;;;;9.03;100.00;100966.59;5073419;28;20165;-74
2021/11/14 05:00:30;;;;;;;5.18;3.00;;;;;;;9.04;100.00;100965.47;5062218;28;20032;-74
2021/11/14 05:02:56;;;;;;;5.57;2.90;;;;;;;9.06;100.00;100962.44;5092269;28;20035;-74
2021/11/14 05:05:21;;;;;;;5.75;3.10;;;;;;;9.05;100.00;100972.66;5073273;28;20033;-74
2021/11/14 05:07:47;;;;;;;5.93;2.95;;;;;;;9.03;100.00;100974.91;5093384;28;20528;-74
2021/11/14 05:10:13;;;;;;;5.53;2.65;;;;;;;9.02;100.00;100972.38;5092808;28;20036;-74
2021/11/14 05:12:38;;;;;;;9.00;3.10;;;;;;;8.99;100.00;100978.47;5093278;28;20075;-74
2021/11/14 05:15:06;;;;;;;5.97;3.08;;;;;;;9.01;100.00;100976.28;5091750;28;20024;-74
2021/11/14 05:17:31;;;;;;;4.95;2.95;;;;;;;8.98;100.00;100969.34;5093086;28;20035;-74
2021/11/14 05:19:57;;;;;;;4.93;2.80;;;;;;;8.99;100.00;100968.22;5094000;28;20476;-74
2021/11/14 05:22:22;;;;;;;5.65;2.65;;;;;;;8.98;100.00;100965.72;5065578;28;20495;-74
2021/11/14 05:24:48;;;;;;;6.50;3.08;;;;;;;8.93;100.00;100966.53;5092184;28;20032;-74
2021/11/14 05:27:13;;;;;;;4.00;3.03;;;;;;;8.95;100.00;100972.66;5093742;28;20032;-74
2021/11/14 05:29:39;;;;;;;6.63;3.20;;;;;;;8.91;100.00;100966.84;5092241;28;20029;-74
2021/11/14 05:32:05;;;;;;;7.90;2.95;;;;;;;8.91;100.00;100971.50;5091972;28;20036;-74
2021/11/14 05:34:30;;;;;;;7.93;3.17;;;;;;;8.90;100.00;100969.84;5092812;28;20058;-74
2021/11/14 05:36:56;;;;;;;4.75;2.85;;;;;;;8.92;100.00;100973.19;5091527;28;20024;-74
2021/11/14 05:39:21;;;;;;;5.38;3.10;;;;;;;8.88;100.00;100975.66;5092124;28;20039;-74
2021/11/14 05:41:47;;;;;;;6.38;3.00;;;;;;;8.90;100.00;100969.84;5094018;28;20689;-74
2021/11/14 05:44:14;;;;;;;7.90;2.90;;;;;;;8.89;100.00;100970.97;5092847;28;20032;-74
2021/11/14 05:46:39;;;;;;;5.07;2.85;;;;;;;8.88;100.00;100969.28;5091997;28;20039;-74
2021/11/14 05:49:08;;;;;;;6.15;3.63;;;;;;;8.88;100.00;100983.13;5094032;28;20024;-74
2021/11/14 05:51:35;;;;;;;7.35;3.10;;;;;;;8.86;100.00;100980.66;5076414;28;20404;-75
2021/11/14 05:54:01;;;;;;;5.93;3.05;;;;;;;8.86;100.00;100971.50;5092829;28;20107;-75
2021/11/14 05:56:27;;;;;;;7.88;2.97;;;;;;;8.87;100.00;100981.47;5061417;28;20029;-75
2021/11/14 05:59:05;;;;;;;6.72;3.20;;;;;;;8.88;100.00;100977.59;5093249;28;20035;-75
2021/11/14 06:01:36;;;;;;;4.53;2.80;;;;;;;8.88;100.00;100977.59;5094289;28;20103;-74
2021/11/14 06:06:32;;;;;;;8.93;3.42;;;;;;;8.87;100.00;100987.03;5097157;28;20491;-75
2021/11/14 06:08:58;;;;;;;5.55;3.28;;;;;;;8.86;100.00;100994.50;5077031;28;20017;-74
2021/11/14 06:11:24;;;;;;;12.27;4.30;;;;;;;8.89;100.00;100984.81;5079326;28;20468;-74
2021/11/14 06:13:50;;;;;;;6.95;3.45;;;;;;;8.88;100.00;100988.69;5095586;28;20097;-74
2021/11/14 06:16:15;;;;;;;8.05;3.35;;;;;;;8.87;100.00;100985.09;5096173;28;20040;-75
2021/11/14 06:18:41;;;;;;;7.90;3.22;;;;;;;8.89;100.00;100984.81;5096859;28;20024;-75
2021/11/14 06:21:06;;;;;;;6.43;3.20;;;;;;;8.90;100.00;100992.00;5086451;28;20029;-74
2021/11/14 06:23:32;;;;;;;9.93;3.17;;;;;;;8.89;100.00;100993.97;5093979;28;20039;-75
2021/11/14 06:25:58;;;;;;;6.90;3.08;;;;;;;8.90;100.00;100994.78;5096809;28;20020;-75
2021/11/14 06:28:24;;;;;;;13.32;3.40;;;;;;;8.91;100.00;101001.97;5094635;28;20028;-75
2021/11/14 06:30:49;;;;;;;5.10;2.60;;;;;;;8.91;100.00;101007.53;5096131;28;20043;-74
2021/11/14 06:33:15;;;;;;;6.95;3.00;;;;;;;8.91;100.00;101005.59;5097647;28;20028;-75
2021/11/14 06:35:40;;;;;;;8.70;3.25;;;;;;;8.91;100.00;100999.22;5075405;28;20032;-75
2021/11/14 06:38:06;;;;;;;4.70;2.97;;;;;;;8.91;100.00;101008.38;5092520;28;20036;-75
2021/11/14 06:40:31;;;;;;;9.38;3.67;;;;;;;8.92;100.00;101009.22;5094987;28;20032;-75
2021/11/14 06:42:57;;;;;;;10.45;3.78;;;;;;;8.92;100.00;101009.22;5086765;28;20029;-75
2021/11/14 06:45:22;;;;;;;10.63;3.55;;;;;;;8.93;100.00;101013.63;5090245;28;20047;-74
2021/11/14 06:47:48;;;;;;;8.13;3.50;;;;;;;8.93;100.00;101013.63;5095062;28;20040;-75
2021/11/14 06:50:14;;;;;;;7.00;3.50;;;;;;;8.91;100.00;101002.84;5094668;28;20032;-74
2021/11/14 06:52:40;;;;;;;5.30;3.60;;;;;;;8.91;100.00;101002.84;5097399;28;20024;-74
2021/11/14 06:55:06;;;;;;;7.53;3.78;;;;;;;8.92;100.00;101009.22;5049687;28;20119;-74
2021/11/14 06:57:31;;;;;;;8.63;3.90;;;;;;;8.94;100.00;101009.75;5071494;28;20087;-74
2021/11/14 06:59:57;;;;;;;8.35;4.05;;;;;;;8.92;100.00;101011.97;5093657;28;20039;-74
2021/11/14 07:02:22;;;;;;;10.48;4.05;;;;;;;8.93;100.00;101022.78;5081158;28;20472;-74
2021/11/14 07:04:48;;;;;;;9.15;4.72;;;;;;;8.92;100.00;101021.13;5074944;28;20054;-74
2021/11/14 07:07:13;;;;;;;10.18;5.68;;;;;;;8.94;100.00;101020.81;5074105;28;20058;-74
2021/11/14 07:09:39;;;;;;;10.02;5.50;;;;;;;8.92;100.00;101018.34;5078441;28;20729;-74
2021/11/14 07:12:05;;;;;;;9.07;4.97;;;;;;;8.93;100.00;101025.53;5061695;28;20488;-74
2021/11/14 07:14:31;;;;;;;10.77;5.20;;;;;;;8.94;100.00;101026.38;5076233;28;20024;-74
2021/11/14 07:16:56;;;;;;;10.38;5.32;;;;;;;8.92;100.00;101029.44;5078875;28;20549;-74
2021/11/14 07:19:22;;;;;;;11.75;6.15;;;;;;;8.92;100.00;101031.38;5057706;28;20553;-74
2021/11/14 07:21:47;;;;;;;7.95;4.97;;;;;;;8.92;100.00;101034.97;5085472;28;20039;-74
2021/11/14 07:24:13;;;;;;;8.93;5.15;;;;;;;8.92;100.00;101036.91;5096209;28;20035;-74
2021/11/14 07:26:39;;;;;;;8.20;4.53;;;;;;;8.93;100.00;101047.69;5094623;28;20032;-74
2021/11/14 07:29:05;;;;;;;10.57;5.97;;;;;;;8.91;100.00;101038.84;5095502;28;20032;-74
2021/11/14 07:31:31;;;;;;;10.68;5.30;;;;;;;8.95;100.00;101051.03;5095301;28;20442;-75
2021/11/14 07:33:56;;;;;;;11.85;5.85;;;;;;;8.93;100.00;101047.69;5094837;28;20036;-72
2021/11/14 07:36:22;;;;;;;7.15;4.93;;;;;;;8.95;100.00;101056.59;5076999;28;20020;-72
2021/11/14 07:38:47;;;;;;;9.35;5.20;;;;;;;8.99;100.00;101054.09;5084465;28;20071;-72
2021/11/14 07:41:13;;;;;;;9.38;4.57;;;;;;;9.02;100.00;101061.88;5092437;28;20028;-73
2021/11/14 07:43:39;;;;;;;8.50;4.45;;;;;;;9.05;100.00;101068.81;5096276;28;20032;-73
2021/11/14 07:46:04;;;;;;;8.48;4.93;;;;;;;9.05;100.00;101069.63;5091284;28;20035;-72
2021/11/14 07:48:30;;;;;;;7.18;4.60;;;;;;;9.07;100.00;101064.66;5092420;28;20027;-72
2021/11/14 07:50:57;;;;;;;7.47;4.75;;;;;;;9.08;100.00;101077.44;5095310;28;20518;-72
2021/11/14 07:53:23;;;;;;;8.85;4.72;;;;;;;9.09;100.00;101073.56;5073020;28;20020;-72
2021/11/14 07:55:49;;;;;;;9.15;4.90;;;;;;;9.12;100.00;101074.94;5094914;28;20024;-72
2021/11/14 07:58:15;;;;;;;9.48;4.88;;;;;;;9.14;100.00;101079.13;5093974;28;20036;-72
2021/11/14 08:00:40;;;;;;;8.52;4.88;;;;;;;9.14;100.00;101081.88;5091200;28;20032;-72
2021/11/14 08:03:05;;;;;;;9.07;4.90;;;;;;;9.16;100.00;101073.28;5088613;28;20519;-72
2021/11/14 08:05:31;;;;;;;7.75;4.43;;;;;;;9.17;100.00;101091.59;5080989;28;20484;-72
2021/11/14 08:07:57;;;;;;;9.15;4.65;;;;;;;9.20;100.00;101090.22;5058324;28;20038;-72
2021/11/14 08:10:23;;;;;;;9.60;4.97;;;;;;;9.21;100.00;101091.88;5060254;28;20020;-72
2021/11/14 08:12:49;;;;;;;11.88;6.20;;;;;;;9.21;100.00;101092.72;5060024;28;20055;-73
2021/11/14 08:15:16;;;;;;;11.90;6.30;;;;;;;9.22;100.00;101093.53;5091159;28;20056;-73
2021/11/14 08:17:41;;;;;;;9.77;5.72;;;;;;;9.21;100.00;101089.94;5090186;28;20072;-73
2021/11/14 08:20:07;;;;;;;11.48;5.95;;;;;;;9.23;100.00;101095.22;5093512;28;20043;-73
2021/11/14 08:22:33;;;;;;;9.85;5.90;;;;;;;9.24;100.00;101096.88;5094296;28;20036;-74
2021/11/14 08:25:00;;;;;;;9.68;5.30;;;;;;;9.26;100.00;101097.44;5093445;28;20024;-72
2021/11/14 08:27:26;;;;;;;9.32;4.60;;;;;;;9.28;100.00;101085.00;5090698;28;20172;-73
2021/11/14 08:29:52;;;;;;;10.02;4.53;;;;;;;9.29;100.00;101085.81;5076046;28;20025;-73
2021/11/14 08:32:18;;;;;;;9.27;4.70;;;;;;;9.34;100.00;101085.84;5093676;28;20031;-73
2021/11/14 08:34:44;;;;;;;8.00;4.68;;;;;;;9.36;100.00;101083.63;5075884;28;20495;-73
2021/11/14 08:37:09;;;;;;;10.00;4.35;;;;;;;9.39;100.00;101091.41;5075826;28;20086;-73
2021/11/14 08:39:35;;;;;;;7.65;4.68;;;;;;;9.42;100.00;101099.19;5075597;28;20032;-73
2021/11/14 08:42:01;;;;;;;12.63;4.93;;;;;;;9.45;100.00;101095.03;5057662;28;20173;-74
2021/11/14 08:44:28;;;;;;;10.63;4.50;;;;;;;9.48;100.00;101098.09;5093076;28;20106;-73
2021/11/14 08:46:54;;;;;;;11.68;4.90;;;;;;;9.51;100.00;101102.25;5071310;28;20098;-74
2021/11/14 08:49:19;;;;;;;11.95;4.80;;;;;;;9.55;100.00;101103.38;5086989;28;20032;-73
2021/11/14 08:51:45;;;;;;;9.48;4.70;;;;;;;9.57;100.00;101099.22;5069390;28;20065;-73
2021/11/14 08:54:10;;;;;;;5.90;4.07;;;;;;;9.60;100.00;101100.59;5074666;28;20059;-74
2021/11/14 08:56:36;;;;;;;10.27;5.80;;;;;;;9.66;100.00;101099.50;5075404;28;20043;-73
2021/11/14 08:59:04;;;;;;;8.95;4.63;;;;;;;9.68;100.00;101107.56;5093865;28;20041;-74
2021/11/14 09:01:29;;;;;;;7.57;4.80;;;;;;;9.73;100.00;101107.59;5091676;28;20050;-73
2021/11/14 09:03:55;;;;;;;8.40;4.50;;;;;;;9.78;100.00;101104.81;5091462;28;20107;-73
2021/11/14 09:06:20;;;;;;;8.65;4.70;;;;;;;9.81;100.00;101105.09;5042990;28;20024;-74
2021/11/14 09:08:46;;;;;;;7.93;4.40;;;;;;;9.87;100.00;101107.91;5085247;28;20045;-73
2021/11/14 09:11:11;;;;;;;8.73;4.05;;;;;;;9.91;100.00;101112.59;5067432;28;20027;-73
2021/11/14 09:13:37;;;;;;;8.95;4.70;;;;;;;9.94;100.00;101112.03;5066710;28;20033;-73
2021/11/14 09:16:03;;;;;;;10.02;5.18;;;;;;;10.01;100.00;101120.94;5063446;28;20048;-74
2021/11/14 09:18:29;;;;;;;7.47;4.22;;;;;;;10.06;100.00;101114.59;5075389;28;20107;-73
2021/11/14 09:20:54;;;;;;;9.57;4.35;;;;;;;10.12;100.00;101118.19;5075764;28;20039;-73
2021/11/14 09:23:20;;;;;;;11.45;5.45;;;;;;;10.15;99.94;101112.91;5074560;28;20036;-74
2021/11/14 09:25:46;;;;;;;12.40;5.82;;;;;;;10.18;100.00;101114.31;5075413;28;20687;-74
2021/11/14 09:28:12;;;;;;;10.10;4.93;;;;;;;10.20;100.00;101112.09;5095868;28;20030;-74
2021/11/14 09:30:38;;;;;;;10.38;4.53;;;;;;;10.24;99.05;101111.25;5062304;28;20028;-74
2021/11/14 09:33:04;;;;;;;9.93;3.97;;;;;;;10.27;99.46;101112.66;5080755;28;20085;-74
2021/11/14 09:35:29;;;;;;;11.18;5.10;;;;;;;10.29;98.37;101114.06;5080619;28;20031;-74
2021/11/14 09:37:55;;;;;;;12.25;4.90;;;;;;;10.31;98.93;101108.25;5092507;28;20032;-73
2021/11/14 09:40:20;;;;;;;9.38;4.63;;;;;;;10.34;98.49;101115.19;5098037;28;20035;-76
2021/11/14 09:42:46;;;;;;;11.95;4.35;;;;;;;10.36;98.93;101113.75;5080992;28;20031;-75
2021/11/14 09:45:11;;;;;;;7.57;4.03;;;;;;;10.40;99.00;101120.44;5077501;28;20066;-75
2021/11/14 09:47:38;;;;;;;8.57;4.25;;;;;;;10.41;99.09;101115.72;5097407;28;20032;-75
2021/11/14 09:50:04;;;;;;;8.70;4.15;;;;;;;10.42;98.84;101114.59;5085078;28;20370;-75
2021/11/14 09:52:30;;;;;;;9.02;4.45;;;;;;;10.45;98.74;101114.91;5095607;28;20627;-75
2021/11/14 09:54:55;;;;;;;10.63;3.83;;;;;;;10.46;98.33;101108.22;5061224;28;20025;-76
2021/11/14 09:57:21;;;;;;;11.35;4.70;;;;;;;10.51;98.22;101108.22;5095307;28;20028;-75
2021/11/14 09:59:46;;;;;;;7.30;3.60;;;;;;;10.50;97.91;101102.94;5096491;28;20032;-75
2021/11/14 10:02:12;;;;;;;7.50;3.85;;;;;;;10.54;98.20;101103.22;5097322;28;20032;-75
2021/11/14 10:04:38;;;;;;;9.25;3.60;;;;;;;10.55;98.62;101097.38;5071080;28;20040;-75
2021/11/14 10:07:17;;;;;;;8.75;3.33;;;;;;;10.61;98.68;101106.53;5093247;28;20040;-74
2021/11/14 10:10:03;;;;;;;6.63;3.60;;;;;;;10.65;97.61;101100.16;5080588;28;20048;-75
2021/11/14 10:12:49;;;;;;;11.00;4.13;;;;;;;10.70;97.72;101102.09;5094281;28;20044;-75
2021/11/14 10:15:20;;;;;;;4.80;3.40;;;;;;;10.72;96.95;101111.78;5096254;28;20479;-74
2021/11/14 10:17:55;;;;;;;8.57;3.45;;;;;;;10.77;96.68;101108.19;5077727;28;20056;-74
2021/11/14 10:20:30;;;;;;;7.03;3.28;;;;;;;10.83;96.56;101109.81;5094991;28;20046;-74
2021/11/14 10:23:05;;;;;;;6.43;3.00;;;;;;;10.86;96.26;101109.25;5074609;28;20036;-74
2021/11/14 10:25:31;;;;;;;6.25;3.50;;;;;;;10.91;95.62;101108.44;5093915;28;20595;-73
2021/11/14 10:27:58;;;;;;;6.10;3.05;;;;;;;10.99;95.31;101104.25;5080287;28;20035;-73
2021/11/14 10:30:25;;;;;;;5.80;3.35;;;;;;;11.01;95.19;101107.59;5095450;28;20380;-73
2021/11/14 10:32:54;;;;;;;6.75;3.03;;;;;;;11.07;93.16;101101.72;5093948;28;20031;-73
2021/11/14 10:35:19;;;;;;;4.97;2.85;;;;;;;11.10;93.03;101095.59;5098189;28;20050;-74
2021/11/14 10:37:45;;;;;;;6.25;2.70;;;;;;;11.15;92.70;101086.41;5061795;28;20032;-74
2021/11/14 10:40:19;;;;;;;5.10;2.90;;;;;;;11.21;92.67;101101.13;5060556;28;20024;-73
2021/11/14 10:42:47;;;;;;;5.65;2.70;;;;;;;11.25;91.93;101096.63;5063875;28;20051;-74
2021/11/14 10:45:13;;;;;;;6.53;3.00;;;;;;;11.27;91.97;101100.81;5052142;28;20590;-74
2021/11/14 10:47:38;;;;;;;4.78;2.70;;;;;;;11.31;92.96;101096.34;5041218;28;20020;-74
2021/11/14 10:50:10;;;;;;;5.47;2.65;;;;;;;11.38;92.94;101101.59;5065499;28;20032;-74
2021/11/14 10:52:36;;;;;;;4.50;3.00;;;;;;;11.44;92.23;101100.44;5092951;28;20039;-74
2021/11/14 10:55:05;;;;;;;5.30;2.67;;;;;;;11.47;91.66;101105.44;5077659;28;20032;-73
2021/11/14 10:57:32;;;;;;;5.28;2.90;;;;;;;11.52;90.95;101094.28;5034784;28;20056;-73
2021/11/14 10:59:58;;;;;;;7.95;2.70;;;;;;;11.57;90.84;101096.22;5077897;28;20031;-73
2021/11/14 11:02:24;;;;;;;6.82;3.00;;;;;;;11.57;91.27;101097.03;5093672;28;20060;-73
2021/11/14 11:04:50;;;;;;;4.85;2.50;;;;;;;11.64;91.32;101085.59;5067058;28;20028;-74
2021/11/14 11:07:16;;;;;;;7.05;3.55;;;;;;;11.71;90.98;101088.91;5042524;28;20388;-71
2021/11/14 11:09:43;;;;;;;8.70;2.90;;;;;;;11.73;90.55;101097.81;5090596;28;20027;-71
2021/11/14 11:12:22;;;;;;;6.20;3.08;;;;;;;11.80;89.24;101100.25;5092816;28;20048;-71
2021/11/14 11:14:59;;;;;;;6.13;3.20;;;;;;;11.83;89.84;101092.16;5093445;28;20028;-71
2021/11/14 11:17:26;;;;;;;5.53;2.83;;;;;;;11.89;88.60;101089.38;5088897;28;20037;-71
2021/11/14 11:19:51;;;;;;;8.80;2.85;;;;;;;11.85;88.20;101092.72;5068292;28;20024;-70
2021/11/14 11:22:17;;;;;;;5.68;3.15;;;;;;;11.89;88.83;101084.63;5062165;28;20074;-70